sensor_id;sensor_type;location;lat;lon;timestamp;pressure;altitude;pressure_sealevel;temperature;humidity
63691;BME280;49837;57.280;27.070;2022-12-18T00:00:27;101218.05;;;-10.84;95.51
63691;BME280;49837;57.280;27.070;2022-12-18T00:01:31;101221.49;;;-10.86;95.48
63691;BME280;49837;57.280;27.070;2022-12-18T00:02:28;101216.69;;;-10.87;95.49
63691;BME280;49837;57.280;27.070;2022-12-18T00:03:29;101221.53;;;-10.89;95.5
63691;BME280;49837;57.280;27.070;2022-12-18T00:06:32;101221.48;;;-10.84;95.6
63691;BME280;49837;57.280;27.070;2022-12-18T00:07:31;101218.98;;;-10.78;95.58
63691;BME280;49837;57.280;27.070;2022-12-18T00:08:31;101222.83;;;-10.82;95.48
63691;BME280;49837;57.280;27.070;2022-12-18T00:09:32;101226.35;;;-10.74;95.48
63691;BME280;49837;57.280;27.070;2022-12-18T00:10:36;101225.3;;;-10.73;95.4
63691;BME280;49837;57.280;27.070;2022-12-18T00:11:37;101227.83;;;-10.72;95.33
63691;BME280;49837;57.280;27.070;2022-12-18T00:12:37;101226.97;;;-10.79;95.28
63691;BME280;49837;57.280;27.070;2022-12-18T00:13:38;101229.21;;;-10.77;95.26
63691;BME280;49837;57.280;27.070;2022-12-18T00:14:38;101231.27;;;-10.75;95.24
63691;BME280;49837;57.280;27.070;2022-12-18T00:15:39;101229.27;;;-10.76;95.2
63691;BME280;49837;57.280;27.070;2022-12-18T00:16:39;101227.9;;;-10.77;95.19
63691;BME280;49837;57.280;27.070;2022-12-18T00:17:40;101229.44;;;-10.82;95.14
63691;BME280;49837;57.280;27.070;2022-12-18T00:18:41;101223.97;;;-10.84;95.13
63691;BME280;49837;57.280;27.070;2022-12-18T00:19:40;101226.22;;;-10.8;95.21
63691;BME280;49837;57.280;27.070;2022-12-18T00:20:41;101230.25;;;-10.82;95.15
63691;BME280;49837;57.280;27.070;2022-12-18T00:21:42;101234.4;;;-10.88;95.18
63691;BME280;49837;57.280;27.070;2022-12-18T00:22:42;101230.93;;;-10.93;95.29
63691;BME280;49837;57.280;27.070;2022-12-18T00:23:45;101230.88;;;-10.95;95.39
63691;BME280;49837;57.280;27.070;2022-12-18T00:24:43;101231.18;;;-10.9;95.44
63691;BME280;49837;57.280;27.070;2022-12-18T00:25:43;101232.48;;;-10.88;95.45
63691;BME280;49837;57.280;27.070;2022-12-18T00:26:44;101232.22;;;-10.85;95.46
63691;BME280;49837;57.280;27.070;2022-12-18T00:27:44;101232.61;;;-10.82;95.47
63691;BME280;49837;57.280;27.070;2022-12-18T00:28:45;101230.85;;;-10.8;95.38
63691;BME280;49837;57.280;27.070;2022-12-18T00:29:45;101233.7;;;-10.81;95.35
63691;BME280;49837;57.280;27.070;2022-12-18T00:30:45;101232.05;;;-10.83;95.3
63691;BME280;49837;57.280;27.070;2022-12-18T00:31:46;101233.09;;;-10.79;95.29
63691;BME280;49837;57.280;27.070;2022-12-18T00:32:46;101237.09;;;-10.81;95.25
63691;BME280;49837;57.280;27.070;2022-12-18T00:33:47;101237.5;;;-10.82;95.23
63691;BME280;49837;57.280;27.070;2022-12-18T00:34:51;101234.87;;;-10.87;95.22
63691;BME280;49837;57.280;27.070;2022-12-18T00:35:52;101238.0;;;-10.86;95.26
63691;BME280;49837;57.280;27.070;2022-12-18T00:36:52;101232.93;;;-10.87;95.24
63691;BME280;49837;57.280;27.070;2022-12-18T00:37:53;101226.34;;;-10.83;95.25
63691;BME280;49837;57.280;27.070;2022-12-18T00:38:55;101231.36;;;-10.76;95.22
63691;BME280;49837;57.280;27.070;2022-12-18T00:39:54;101228.05;;;-10.72;95.13
63691;BME280;49837;57.280;27.070;2022-12-18T00:40:54;101233.62;;;-10.72;95.01
63691;BME280;49837;57.280;27.070;2022-12-18T00:41:55;101232.27;;;-10.75;94.93
63691;BME280;49837;57.280;27.070;2022-12-18T00:42:55;101230.7;;;-10.74;94.87
63691;BME280;49837;57.280;27.070;2022-12-18T00:43:55;101231.19;;;-10.71;94.85
63691;BME280;49837;57.280;27.070;2022-12-18T00:44:56;101232.55;;;-10.71;94.79
63691;BME280;49837;57.280;27.070;2022-12-18T00:45:56;101230.16;;;-10.68;94.77
63691;BME280;49837;57.280;27.070;2022-12-18T00:46:57;101233.66;;;-10.66;94.73
63691;BME280;49837;57.280;27.070;2022-12-18T00:47:57;101233.64;;;-10.64;94.74
63691;BME280;49837;57.280;27.070;2022-12-18T00:48:58;101237.12;;;-10.62;94.71
63691;BME280;49837;57.280;27.070;2022-12-18T00:49:58;101236.28;;;-10.69;94.66
63691;BME280;49837;57.280;27.070;2022-12-18T00:50:59;101237.55;;;-10.7;94.71
63691;BME280;49837;57.280;27.070;2022-12-18T00:51:59;101237.34;;;-10.74;94.75
63691;BME280;49837;57.280;27.070;2022-12-18T00:52:59;101239.22;;;-10.79;94.82
63691;BME280;49837;57.280;27.070;2022-12-18T00:54:00;101240.41;;;-10.76;94.96
63691;BME280;49837;57.280;27.070;2022-12-18T00:55:00;101241.2;;;-10.74;94.96
63691;BME280;49837;57.280;27.070;2022-12-18T00:56:03;101235.62;;;-10.73;94.94
63691;BME280;49837;57.280;27.070;2022-12-18T00:57:03;101237.82;;;-10.74;94.92
63691;BME280;49837;57.280;27.070;2022-12-18T00:58:03;101234.16;;;-10.73;94.89
63691;BME280;49837;57.280;27.070;2022-12-18T00:59:04;101238.7;;;-10.76;94.92
63691;BME280;49837;57.280;27.070;2022-12-18T01:00:07;101234.75;;;-10.75;94.96
63691;BME280;49837;57.280;27.070;2022-12-18T01:01:05;101232.91;;;-10.76;94.94
63691;BME280;49837;57.280;27.070;2022-12-18T01:02:05;101233.86;;;-10.75;94.95
63691;BME280;49837;57.280;27.070;2022-12-18T01:03:06;101235.84;;;-10.78;94.93
63691;BME280;49837;57.280;27.070;2022-12-18T01:04:06;101242.5;;;-10.82;94.96
63691;BME280;49837;57.280;27.070;2022-12-18T01:05:08;101241.64;;;-10.86;95.09
63691;BME280;49837;57.280;27.070;2022-12-18T01:06:09;101247.1;;;-10.81;95.28
63691;BME280;49837;57.280;27.070;2022-12-18T01:07:07;101248.47;;;-10.8;95.42
63691;BME280;49837;57.280;27.070;2022-12-18T01:08:08;101247.62;;;-10.83;95.43
63691;BME280;49837;57.280;27.070;2022-12-18T01:09:08;101249.7;;;-10.84;95.45
63691;BME280;49837;57.280;27.070;2022-12-18T01:10:10;101247.86;;;-10.85;95.5
63691;BME280;49837;57.280;27.070;2022-12-18T01:11:12;101251.0;;;-10.88;95.61
63691;BME280;49837;57.280;27.070;2022-12-18T01:12:10;101244.58;;;-10.87;95.73
63691;BME280;49837;57.280;27.070;2022-12-18T01:13:10;101247.7;;;-10.87;95.83
63691;BME280;49837;57.280;27.070;2022-12-18T01:14:11;101246.72;;;-10.88;95.85
63691;BME280;49837;57.280;27.070;2022-12-18T01:15:13;101250.42;;;-10.83;95.95
63691;BME280;49837;57.280;27.070;2022-12-18T01:16:16;101246.17;;;-10.83;95.94
63691;BME280;49837;57.280;27.070;2022-12-18T01:17:14;101242.27;;;-10.81;95.9
63691;BME280;49837;57.280;27.070;2022-12-18T01:18:14;101244.38;;;-10.78;95.92
63691;BME280;49837;57.280;27.070;2022-12-18T01:19:15;101247.2;;;-10.8;95.8
63691;BME280;49837;57.280;27.070;2022-12-18T01:20:15;101243.47;;;-10.82;95.77
63691;BME280;49837;57.280;27.070;2022-12-18T01:21:16;101244.11;;;-10.74;95.85
63691;BME280;49837;57.280;27.070;2022-12-18T01:22:16;101245.8;;;-10.74;95.72
63691;BME280;49837;57.280;27.070;2022-12-18T01:23:16;101247.09;;;-10.75;95.61
63691;BME280;49837;57.280;27.070;2022-12-18T01:24:17;101246.28;;;-10.77;95.53
63691;BME280;49837;57.280;27.070;2022-12-18T01:25:18;101246.8;;;-10.78;95.47
63691;BME280;49837;57.280;27.070;2022-12-18T01:26:18;101244.6;;;-10.84;95.52
63691;BME280;49837;57.280;27.070;2022-12-18T01:27:18;101244.58;;;-10.87;95.7
63691;BME280;49837;57.280;27.070;2022-12-18T01:28:19;101242.94;;;-10.91;95.83
63691;BME280;49837;57.280;27.070;2022-12-18T01:29:19;101244.23;;;-10.88;95.96
63691;BME280;49837;57.280;27.070;2022-12-18T01:30:20;101242.79;;;-10.9;95.98
63691;BME280;49837;57.280;27.070;2022-12-18T01:31:23;101244.3;;;-10.83;95.99
63691;BME280;49837;57.280;27.070;2022-12-18T01:32:21;101235.42;;;-10.83;95.92
63691;BME280;49837;57.280;27.070;2022-12-18T01:33:22;101241.55;;;-10.83;95.9
63691;BME280;49837;57.280;27.070;2022-12-18T01:34:23;101239.7;;;-10.79;95.89
63691;BME280;49837;57.280;27.070;2022-12-18T01:35:23;101239.53;;;-10.76;95.79
63691;BME280;49837;57.280;27.070;2022-12-18T01:36:28;101237.98;;;-10.74;95.72
63691;BME280;49837;57.280;27.070;2022-12-18T01:37:26;101235.88;;;-10.72;95.69
63691;BME280;49837;57.280;27.070;2022-12-18T01:38:28;101240.76;;;-10.64;95.63
63691;BME280;49837;57.280;27.070;2022-12-18T01:39:27;101245.33;;;-10.63;95.51
63691;BME280;49837;57.280;27.070;2022-12-18T01:40:27;101250.27;;;-10.66;95.45
63691;BME280;49837;57.280;27.070;2022-12-18T01:41:29;101247.78;;;-10.68;95.42
63691;BME280;49837;57.280;27.070;2022-12-18T01:42:28;101250.41;;;-10.72;95.36
63691;BME280;49837;57.280;27.070;2022-12-18T01:45:36;101252.48;;;-10.78;95.3
63691;BME280;49837;57.280;27.070;2022-12-18T01:46:36;101250.03;;;-10.81;95.32
63691;BME280;49837;57.280;27.070;2022-12-18T01:48:43;101248.45;;;-10.76;95.28
63691;BME280;49837;57.280;27.070;2022-12-18T01:49:41;101247.1;;;-10.73;95.28
63691;BME280;49837;57.280;27.070;2022-12-18T01:50:42;101245.48;;;-10.79;95.22
63691;BME280;49837;57.280;27.070;2022-12-18T01:51:42;101249.44;;;-10.84;95.23
63691;BME280;49837;57.280;27.070;2022-12-18T01:52:46;101251.0;;;-10.83;95.3
63691;BME280;49837;57.280;27.070;2022-12-18T01:53:45;101248.95;;;-10.82;95.35
63691;BME280;49837;57.280;27.070;2022-12-18T01:54:45;101255.34;;;-10.86;95.38
63691;BME280;49837;57.280;27.070;2022-12-18T01:56:49;101249.95;;;-10.83;95.37
63691;BME280;49837;57.280;27.070;2022-12-18T01:57:55;101249.16;;;-10.86;95.35
63691;BME280;49837;57.280;27.070;2022-12-18T02:00:00;101250.14;;;-10.75;95.21
63691;BME280;49837;57.280;27.070;2022-12-18T02:00:59;101249.59;;;-10.78;95.15
63691;BME280;49837;57.280;27.070;2022-12-18T02:01:59;101257.03;;;-10.78;95.09
63691;BME280;49837;57.280;27.070;2022-12-18T02:03:00;101255.34;;;-10.86;95.12
63691;BME280;49837;57.280;27.070;2022-12-18T02:05:05;101251.27;;;-10.92;95.38
63691;BME280;49837;57.280;27.070;2022-12-18T02:08:19;101246.91;;;-10.94;95.55
63691;BME280;49837;57.280;27.070;2022-12-18T02:09:15;101248.5;;;-10.9;95.54
63691;BME280;49837;57.280;27.070;2022-12-18T02:12:20;101251.8;;;-11.11;95.8
63691;BME280;49837;57.280;27.070;2022-12-18T02:18:32;101259.99;;;-11.15;96.15
63691;BME280;49837;57.280;27.070;2022-12-18T02:20:54;101255.77;;;-10.94;96.1
63691;BME280;49837;57.280;27.070;2022-12-18T02:27:02;101262.92;;;-11.13;95.39
63691;BME280;49837;57.280;27.070;2022-12-18T02:28:00;101267.84;;;-11.22;95.4
63691;BME280;49837;57.280;27.070;2022-12-18T02:30:04;101269.16;;;-11.24;95.59
63691;BME280;49837;57.280;27.070;2022-12-18T02:31:06;101269.0;;;-11.35;95.75
63691;BME280;49837;57.280;27.070;2022-12-18T02:32:15;101280.08;;;-11.31;95.88
63691;BME280;49837;57.280;27.070;2022-12-18T02:33:11;101277.59;;;-11.28;95.82
63691;BME280;49837;57.280;27.070;2022-12-18T02:34:11;101280.11;;;-11.28;95.81
63691;BME280;49837;57.280;27.070;2022-12-18T02:35:17;101282.66;;;-11.23;95.79
63691;BME280;49837;57.280;27.070;2022-12-18T02:36:14;101281.14;;;-11.3;95.86
63691;BME280;49837;57.280;27.070;2022-12-18T02:37:15;101277.12;;;-11.32;95.97
63691;BME280;49837;57.280;27.070;2022-12-18T02:38:15;101276.15;;;-11.28;95.99
63691;BME280;49837;57.280;27.070;2022-12-18T02:39:15;101278.56;;;-11.26;95.94
63691;BME280;49837;57.280;27.070;2022-12-18T02:40:15;101277.11;;;-11.24;95.88
63691;BME280;49837;57.280;27.070;2022-12-18T02:41:16;101276.06;;;-11.21;95.82
63691;BME280;49837;57.280;27.070;2022-12-18T02:42:16;101279.75;;;-11.24;95.73
63691;BME280;49837;57.280;27.070;2022-12-18T02:43:16;101276.43;;;-11.17;95.73
63691;BME280;49837;57.280;27.070;2022-12-18T02:44:16;101281.44;;;-11.17;95.57
63691;BME280;49837;57.280;27.070;2022-12-18T02:45:17;101284.08;;;-11.16;95.49
63691;BME280;49837;57.280;27.070;2022-12-18T02:46:32;101289.1;;;-11.12;95.38
63691;BME280;49837;57.280;27.070;2022-12-18T02:47:24;101293.88;;;-11.19;95.11
63691;BME280;49837;57.280;27.070;2022-12-18T02:48:29;101292.02;;;-11.2;95.02
63691;BME280;49837;57.280;27.070;2022-12-18T02:52:45;101284.36;;;-11.17;95.02
63691;BME280;49837;57.280;27.070;2022-12-18T02:53:44;101287.34;;;-11.16;95.01
63691;BME280;49837;57.280;27.070;2022-12-18T02:56:50;101283.64;;;-11.21;94.91
63691;BME280;49837;57.280;27.070;2022-12-18T02:58:10;101285.42;;;-11.3;94.86
63691;BME280;49837;57.280;27.070;2022-12-18T03:00:04;101285.91;;;-11.28;94.87
63691;BME280;49837;57.280;27.070;2022-12-18T03:01:03;101285.07;;;-11.26;94.79
63691;BME280;49837;57.280;27.070;2022-12-18T03:03:07;101283.8;;;-11.25;94.67
63691;BME280;49837;57.280;27.070;2022-12-18T03:04:16;101286.7;;;-11.25;94.59
63691;BME280;49837;57.280;27.070;2022-12-18T03:06:23;101289.25;;;-11.27;94.65
63691;BME280;49837;57.280;27.070;2022-12-18T03:07:27;101286.05;;;-11.33;94.66
63691;BME280;49837;57.280;27.070;2022-12-18T03:08:33;101287.77;;;-11.4;94.71
63691;BME280;49837;57.280;27.070;2022-12-18T03:09:34;101284.75;;;-11.51;94.88
63691;BME280;49837;57.280;27.070;2022-12-18T03:10:31;101286.24;;;-11.53;95.09
63691;BME280;49837;57.280;27.070;2022-12-18T03:11:32;101286.86;;;-11.53;95.24
63691;BME280;49837;57.280;27.070;2022-12-18T03:12:34;101287.52;;;-11.6;95.32
63691;BME280;49837;57.280;27.070;2022-12-18T03:13:36;101287.5;;;-11.65;95.35
63691;BME280;49837;57.280;27.070;2022-12-18T03:15:38;101293.38;;;-11.7;95.51
63691;BME280;49837;57.280;27.070;2022-12-18T03:16:40;101293.64;;;-11.69;95.63
63691;BME280;49837;57.280;27.070;2022-12-18T03:17:42;101289.52;;;-11.74;95.74
63691;BME280;49837;57.280;27.070;2022-12-18T03:18:47;101293.8;;;-11.7;95.84
63691;BME280;49837;57.280;27.070;2022-12-18T03:19:48;101296.17;;;-11.7;95.79
63691;BME280;49837;57.280;27.070;2022-12-18T03:20:48;101289.17;;;-11.71;95.77
63691;BME280;49837;57.280;27.070;2022-12-18T03:21:50;101281.53;;;-11.66;95.75
63691;BME280;49837;57.280;27.070;2022-12-18T03:22:53;101284.39;;;-11.59;95.75
63691;BME280;49837;57.280;27.070;2022-12-18T03:23:53;101287.03;;;-11.55;95.67
63691;BME280;49837;57.280;27.070;2022-12-18T03:24:54;101284.61;;;-11.5;95.49
63691;BME280;49837;57.280;27.070;2022-12-18T03:25:57;101280.59;;;-11.47;95.33
63691;BME280;49837;57.280;27.070;2022-12-18T03:27:01;101290.88;;;-11.45;95.15
63691;BME280;49837;57.280;27.070;2022-12-18T03:28:00;101293.05;;;-11.5;95.01
63691;BME280;49837;57.280;27.070;2022-12-18T03:29:04;101289.3;;;-11.57;94.92
63691;BME280;49837;57.280;27.070;2022-12-18T03:30:07;101287.2;;;-11.56;94.93
63691;BME280;49837;57.280;27.070;2022-12-18T03:31:07;101291.95;;;-11.57;94.83
63691;BME280;49837;57.280;27.070;2022-12-18T03:32:17;101290.58;;;-11.68;94.9
63691;BME280;49837;57.280;27.070;2022-12-18T03:33:12;101292.5;;;-11.77;95.16
63691;BME280;49837;57.280;27.070;2022-12-18T03:34:19;101294.02;;;-11.82;95.38
63691;BME280;49837;57.280;27.070;2022-12-18T03:35:17;101287.39;;;-11.8;95.62
63691;BME280;49837;57.280;27.070;2022-12-18T03:36:16;101284.12;;;-11.75;95.69
63691;BME280;49837;57.280;27.070;2022-12-18T03:37:16;101280.25;;;-11.7;95.78
63691;BME280;49837;57.280;27.070;2022-12-18T03:38:17;101286.3;;;-11.76;95.71
63691;BME280;49837;57.280;27.070;2022-12-18T03:39:18;101285.17;;;-11.81;95.69
63691;BME280;49837;57.280;27.070;2022-12-18T03:40:20;101285.23;;;-11.77;95.71
63691;BME280;49837;57.280;27.070;2022-12-18T03:45:41;101301.34;;;-11.75;95.08
63691;BME280;49837;57.280;27.070;2022-12-18T03:46:33;101303.02;;;-11.77;95.05
63691;BME280;49837;57.280;27.070;2022-12-18T03:54:51;101303.09;;;-12.01;94.94
63691;BME280;49837;57.280;27.070;2022-12-18T03:55:51;101305.91;;;-12.07;95.3
63691;BME280;49837;57.280;27.070;2022-12-18T03:57:53;101300.5;;;-12.07;95.51
63691;BME280;49837;57.280;27.070;2022-12-18T03:58:54;101302.1;;;-12.05;95.68
63691;BME280;49837;57.280;27.070;2022-12-18T04:01:01;101306.52;;;-11.96;95.69
63691;BME280;49837;57.280;27.070;2022-12-18T04:02:00;101305.62;;;-11.98;95.61
63691;BME280;49837;57.280;27.070;2022-12-18T04:03:00;101306.72;;;-12.01;95.61
63691;BME280;49837;57.280;27.070;2022-12-18T04:04:01;101306.85;;;-11.97;95.61
63691;BME280;49837;57.280;27.070;2022-12-18T04:05:03;101312.36;;;-11.91;95.55
63691;BME280;49837;57.280;27.070;2022-12-18T04:06:02;101312.09;;;-11.92;95.36
63691;BME280;49837;57.280;27.070;2022-12-18T04:07:02;101319.45;;;-11.87;95.31
63691;BME280;49837;57.280;27.070;2022-12-18T04:08:03;101315.06;;;-11.95;95.15
63691;BME280;49837;57.280;27.070;2022-12-18T04:09:04;101321.73;;;-11.97;95.0
63691;BME280;49837;57.280;27.070;2022-12-18T04:10:06;101320.06;;;-12.05;95.04
63691;BME280;49837;57.280;27.070;2022-12-18T04:11:04;101317.36;;;-12.0;95.1
63691;BME280;49837;57.280;27.070;2022-12-18T04:12:05;101321.99;;;-12.0;94.96
63691;BME280;49837;57.280;27.070;2022-12-18T04:13:05;101320.33;;;-11.99;94.91
63691;BME280;49837;57.280;27.070;2022-12-18T04:14:05;101312.28;;;-12.03;94.94
63691;BME280;49837;57.280;27.070;2022-12-18T04:15:07;101321.09;;;-12.07;94.85
63691;BME280;49837;57.280;27.070;2022-12-18T04:16:07;101322.88;;;-12.04;94.82
63691;BME280;49837;57.280;27.070;2022-12-18T04:17:07;101325.78;;;-12.09;94.7
63691;BME280;49837;57.280;27.070;2022-12-18T04:18:07;101323.04;;;-12.28;94.73
63691;BME280;49837;57.280;27.070;2022-12-18T04:19:08;101321.68;;;-12.34;94.87
63691;BME280;49837;57.280;27.070;2022-12-18T04:20:09;101320.0;;;-12.31;94.97
63691;BME280;49837;57.280;27.070;2022-12-18T04:21:09;101327.12;;;-12.3;95.02
63691;BME280;49837;57.280;27.070;2022-12-18T04:22:10;101324.97;;;-12.33;95.01
63691;BME280;49837;57.280;27.070;2022-12-18T04:23:09;101330.48;;;-12.34;95.04
63691;BME280;49837;57.280;27.070;2022-12-18T04:24:10;101324.9;;;-12.34;95.06
63691;BME280;49837;57.280;27.070;2022-12-18T04:25:10;101325.2;;;-12.29;95.17
63691;BME280;49837;57.280;27.070;2022-12-18T04:26:11;101324.66;;;-12.33;95.15
63691;BME280;49837;57.280;27.070;2022-12-18T04:27:11;101327.8;;;-12.32;95.22
63691;BME280;49837;57.280;27.070;2022-12-18T04:28:12;101323.61;;;-12.27;95.24
63691;BME280;49837;57.280;27.070;2022-12-18T04:29:12;101326.11;;;-12.24;95.13
63691;BME280;49837;57.280;27.070;2022-12-18T04:30:13;101327.27;;;-12.24;95.06
63691;BME280;49837;57.280;27.070;2022-12-18T04:31:13;101324.91;;;-12.27;95.01
63691;BME280;49837;57.280;27.070;2022-12-18T04:32:13;101324.53;;;-12.19;94.99
63691;BME280;49837;57.280;27.070;2022-12-18T04:33:14;101325.7;;;-12.1;94.9
63691;BME280;49837;57.280;27.070;2022-12-18T04:34:15;101324.44;;;-12.16;94.64
63691;BME280;49837;57.280;27.070;2022-12-18T04:35:15;101325.66;;;-12.19;94.47
63691;BME280;49837;57.280;27.070;2022-12-18T04:36:15;101321.08;;;-12.21;94.36
63691;BME280;49837;57.280;27.070;2022-12-18T04:37:16;101323.16;;;-12.22;94.32
63691;BME280;49837;57.280;27.070;2022-12-18T04:38:16;101330.8;;;-12.23;94.24
63691;BME280;49837;57.280;27.070;2022-12-18T04:39:17;101336.95;;;-12.29;94.08
63691;BME280;49837;57.280;27.070;2022-12-18T04:40:17;101334.62;;;-12.3;93.86
63691;BME280;49837;57.280;27.070;2022-12-18T04:41:17;101335.98;;;-12.31;93.72
63691;BME280;49837;57.280;27.070;2022-12-18T04:42:18;101340.48;;;-12.36;93.56
63691;BME280;49837;57.280;27.070;2022-12-18T04:43:18;101338.42;;;-12.41;93.44
63691;BME280;49837;57.280;27.070;2022-12-18T04:44:19;101338.49;;;-12.42;93.37
63691;BME280;49837;57.280;27.070;2022-12-18T04:45:19;101340.03;;;-12.46;93.29
63691;BME280;49837;57.280;27.070;2022-12-18T04:46:20;101350.04;;;-12.47;93.28
63691;BME280;49837;57.280;27.070;2022-12-18T04:47:20;101345.0;;;-12.5;93.26
63691;BME280;49837;57.280;27.070;2022-12-18T04:48:21;101347.94;;;-12.49;93.35
63691;BME280;49837;57.280;27.070;2022-12-18T04:49:21;101347.83;;;-12.47;93.57
63691;BME280;49837;57.280;27.070;2022-12-18T04:50:21;101347.4;;;-12.47;93.85
63691;BME280;49837;57.280;27.070;2022-12-18T04:51:22;101352.23;;;-12.48;93.73
63691;BME280;49837;57.280;27.070;2022-12-18T04:52:23;101345.23;;;-12.51;93.77
63691;BME280;49837;57.280;27.070;2022-12-18T04:53:23;101343.91;;;-12.51;93.74
63691;BME280;49837;57.280;27.070;2022-12-18T04:54:23;101345.46;;;-12.49;93.78
63691;BME280;49837;57.280;27.070;2022-12-18T04:55:24;101347.86;;;-12.48;93.82
63691;BME280;49837;57.280;27.070;2022-12-18T04:56:24;101346.33;;;-12.49;93.96
63691;BME280;49837;57.280;27.070;2022-12-18T04:57:25;101343.59;;;-12.43;94.08
63691;BME280;49837;57.280;27.070;2022-12-18T04:58:25;101344.0;;;-12.4;93.97
63691;BME280;49837;57.280;27.070;2022-12-18T04:59:26;101347.69;;;-12.38;93.83
63691;BME280;49837;57.280;27.070;2022-12-18T05:00:27;101345.52;;;-12.4;93.62
63691;BME280;49837;57.280;27.070;2022-12-18T05:01:27;101355.67;;;-12.5;93.47
63691;BME280;49837;57.280;27.070;2022-12-18T05:02:31;101355.3;;;-12.57;93.36
63691;BME280;49837;57.280;27.070;2022-12-18T05:03:31;101355.84;;;-12.63;93.26
63691;BME280;49837;57.280;27.070;2022-12-18T05:04:32;101354.81;;;-12.62;93.22
63691;BME280;49837;57.280;27.070;2022-12-18T05:05:34;101360.66;;;-12.62;93.2
63691;BME280;49837;57.280;27.070;2022-12-18T05:06:32;101360.95;;;-12.59;93.16
63691;BME280;49837;57.280;27.070;2022-12-18T05:07:33;101365.57;;;-12.64;93.01
63691;BME280;49837;57.280;27.070;2022-12-18T05:08:33;101360.77;;;-12.69;92.89
63691;BME280;49837;57.280;27.070;2022-12-18T05:09:34;101367.09;;;-12.8;92.86
63691;BME280;49837;57.280;27.070;2022-12-18T05:10:34;101369.48;;;-12.79;93.24
63691;BME280;49837;57.280;27.070;2022-12-18T05:11:35;101371.67;;;-12.64;93.4
63691;BME280;49837;57.280;27.070;2022-12-18T05:12:35;101371.54;;;-12.69;93.09
63691;BME280;49837;57.280;27.070;2022-12-18T05:13:36;101376.24;;;-12.77;92.86
63691;BME280;49837;57.280;27.070;2022-12-18T05:14:36;101369.66;;;-12.77;92.88
63691;BME280;49837;57.280;27.070;2022-12-18T05:15:36;101370.54;;;-12.81;92.82
63691;BME280;49837;57.280;27.070;2022-12-18T05:16:37;101370.57;;;-12.88;92.77
63691;BME280;49837;57.280;27.070;2022-12-18T05:17:37;101371.8;;;-12.92;92.93
63691;BME280;49837;57.280;27.070;2022-12-18T05:18:38;101375.45;;;-12.98;93.08
63691;BME280;49837;57.280;27.070;2022-12-18T05:19:38;101370.75;;;-13.03;93.3
63691;BME280;49837;57.280;27.070;2022-12-18T05:20:39;101375.0;;;-12.97;93.4
63691;BME280;49837;57.280;27.070;2022-12-18T05:21:39;101372.2;;;-12.9;93.52
63691;BME280;49837;57.280;27.070;2022-12-18T05:22:39;101372.48;;;-12.87;93.43
63691;BME280;49837;57.280;27.070;2022-12-18T05:23:40;101371.97;;;-12.8;93.52
63691;BME280;49837;57.280;27.070;2022-12-18T05:24:40;101375.17;;;-12.82;93.29
63691;BME280;49837;57.280;27.070;2022-12-18T05:25:41;101378.76;;;-12.84;93.18
63691;BME280;49837;57.280;27.070;2022-12-18T05:26:41;101374.62;;;-12.84;93.01
63691;BME280;49837;57.280;27.070;2022-12-18T05:27:42;101372.03;;;-12.86;92.92
63691;BME280;49837;57.280;27.070;2022-12-18T05:28:42;101372.98;;;-12.85;92.88
63691;BME280;49837;57.280;27.070;2022-12-18T05:29:42;101366.64;;;-12.87;92.77
63691;BME280;49837;57.280;27.070;2022-12-18T05:30:50;101374.05;;;-12.85;92.74
63691;BME280;49837;57.280;27.070;2022-12-18T05:31:43;101375.06;;;-12.84;92.71
63691;BME280;49837;57.280;27.070;2022-12-18T05:32:44;101377.94;;;-12.89;92.59
63691;BME280;49837;57.280;27.070;2022-12-18T05:33:44;101375.14;;;-12.99;92.37
63691;BME280;49837;57.280;27.070;2022-12-18T05:34:45;101378.89;;;-13.01;92.33
63691;BME280;49837;57.280;27.070;2022-12-18T05:35:50;101372.95;;;-13.04;92.47
63691;BME280;49837;57.280;27.070;2022-12-18T05:36:48;101374.99;;;-13.07;92.41
63691;BME280;49837;57.280;27.070;2022-12-18T05:37:49;101375.64;;;-13.07;92.42
63691;BME280;49837;57.280;27.070;2022-12-18T05:38:49;101374.73;;;-13.1;92.4
63691;BME280;49837;57.280;27.070;2022-12-18T05:39:49;101375.52;;;-13.11;92.49
63691;BME280;49837;57.280;27.070;2022-12-18T05:40:51;101375.28;;;-13.1;92.51
63691;BME280;49837;57.280;27.070;2022-12-18T05:41:50;101372.75;;;-13.11;92.49
63691;BME280;49837;57.280;27.070;2022-12-18T05:42:51;101375.31;;;-13.1;92.41
63691;BME280;49837;57.280;27.070;2022-12-18T05:43:51;101381.19;;;-13.1;92.35
63691;BME280;49837;57.280;27.070;2022-12-18T05:44:52;101373.3;;;-13.08;92.21
63691;BME280;49837;57.280;27.070;2022-12-18T05:45:53;101382.42;;;-13.12;92.02
63691;BME280;49837;57.280;27.070;2022-12-18T05:46:53;101385.48;;;-13.12;92.06
63691;BME280;49837;57.280;27.070;2022-12-18T05:47:53;101385.7;;;-13.16;91.93
63691;BME280;49837;57.280;27.070;2022-12-18T05:48:53;101383.75;;;-13.17;91.82
63691;BME280;49837;57.280;27.070;2022-12-18T05:49:54;101381.02;;;-13.2;91.7
63691;BME280;49837;57.280;27.070;2022-12-18T05:50:54;101382.95;;;-13.17;91.82
63691;BME280;49837;57.280;27.070;2022-12-18T05:51:55;101388.22;;;-13.21;91.71
63691;BME280;49837;57.280;27.070;2022-12-18T05:52:55;101391.94;;;-13.24;91.62
63691;BME280;49837;57.280;27.070;2022-12-18T05:53:55;101386.1;;;-13.25;91.55
63691;BME280;49837;57.280;27.070;2022-12-18T05:54:56;101388.77;;;-13.22;91.53
63691;BME280;49837;57.280;27.070;2022-12-18T05:56:02;101385.43;;;-13.25;91.31
63691;BME280;49837;57.280;27.070;2022-12-18T05:57:00;101389.95;;;-13.33;91.2
63691;BME280;49837;57.280;27.070;2022-12-18T05:58:02;101383.48;;;-13.3;91.29
63691;BME280;49837;57.280;27.070;2022-12-18T05:59:01;101386.25;;;-13.24;91.44